Terminal Aerodrome Forecast
Issued by NWS

Home | Current Version | Previous Version | Text Only | Print | Product List | Glossary On
Versions: 1 2 3 4 5 6 7 8 9 10 11 12 13 14 15
000
FTUS42 TJSJ 240520
TAFNCM
TAF
TNCM 240520Z 2406/2506 08008KT P6SM FEW022
     FM241300 09012G18KT P6SM SCT022
     FM242300 07008KT P6SM FEW024=

USA.gov is the U.S. government's official web portal to all federal, state and local government web resources and services.